Allensville, Kentucky
Current Conditions -  °F | °C
As of 7:52 AM on Tuesday 21 Oct 2014 (Local Time) from KCKV Reporting Station
Clear Clear  
Wind Chill: 49°   Ceiling: Unl
Heat Index: 49°   Visibility: 7mi
Dew Point: 47°   Wind: 3mph
Humidity: 93%   Direction: 260°W
Pressure: 30.05"   Gusts: NA
Location:  36.72°N, 87.07°W
Report Text: KCKV 211252Z AUTO 26003KT 7SM CLR 09/08 A3005 RMK AO2 SLP176 T00940083
Loading
Personal Weather Stations






























Interactive Weather Map
Tropical Storm Tracking
New forecast layout! Learn more

10-Day Weather Forecast

Advertisements
Track Severe Weather on mobile